Time;durP1;ratioP1;P1;durP2;ratioP2;P2;SDS_P1;SDS_P2;PMS_P1;PMS_P2;Temp;Humidity;BMP_temperature;BMP_pressure;BME280_temperature;BME280_humidity;BME280_pressure;Samples;Min_cycle;Max_cycle;Signal;HPM_P1;HPM_P2
2024/04/02 00:01:06;;;;;;;1.45;0.70;;;7.70;99.90;;;;;;6109442;23;20448;-79
2024/04/02 00:03:33;;;;;;;1.80;0.90;;;7.70;99.90;;;;;;6111313;23;20406;-80
2024/04/02 00:05:59;;;;;;;1.25;0.70;;;7.70;99.90;;;;;;6135410;23;20024;-79
2024/04/02 00:08:28;;;;;;;1.30;0.60;;;7.70;99.90;;;;;;6138269;23;20233;-79
2024/04/02 00:11:01;;;;;;;1.42;0.70;;;7.70;99.90;;;;;;6145187;23;20013;-79
2024/04/02 00:13:27;;;;;;;2.20;0.70;;;7.70;99.90;;;;;;6087116;23;20446;-79
2024/04/02 00:15:54;;;;;;;1.52;0.80;;;7.70;99.90;;;;;;6112273;23;20028;-79
2024/04/02 00:18:20;;;;;;;1.88;0.70;;;7.70;99.90;;;;;;6110111;23;20028;-79
2024/04/02 00:20:47;;;;;;;2.85;0.82;;;7.70;99.90;;;;;;6159300;23;20017;-79
2024/04/02 00:23:13;;;;;;;2.08;1.02;;;7.70;99.90;;;;;;6135956;23;20375;-78
2024/04/02 00:25:42;;;;;;;3.53;1.63;;;7.70;99.90;;;;;;6172769;23;20461;-79
2024/04/02 00:28:11;;;;;;;2.70;1.33;;;7.70;99.90;;;;;;6111686;23;20012;-79
2024/04/02 00:30:39;;;;;;;3.92;1.88;;;7.70;99.90;;;;;;6111669;23;20455;-80
2024/04/02 00:33:06;;;;;;;2.92;1.02;;;7.70;99.90;;;;;;6120532;23;20458;-79
2024/04/02 00:35:33;;;;;;;3.38;0.80;;;7.70;99.90;;;;;;6135891;23;20033;-79
2024/04/02 00:37:59;;;;;;;1.48;0.70;;;7.70;99.90;;;;;;6146470;23;20005;-79
2024/04/02 00:40:25;;;;;;;1.98;0.68;;;7.70;99.90;;;;;;6172905;23;20599;-78
2024/04/02 00:43:04;;;;;;;1.52;0.50;;;7.60;99.90;;;;;;6135931;23;20017;-78
2024/04/02 00:45:31;;;;;;;1.15;0.60;;;7.60;99.90;;;;;;6173087;23;20029;-79
2024/04/02 00:47:57;;;;;;;2.05;0.50;;;7.60;99.90;;;;;;6172848;23;20012;-79
2024/04/02 00:50:24;;;;;;;2.50;0.55;;;7.60;99.90;;;;;;6112131;23;20513;-78
2024/04/02 00:52:50;;;;;;;2.55;0.50;;;7.60;99.90;;;;;;6173823;23;20012;-79
2024/04/02 00:55:16;;;;;;;2.63;0.60;;;7.60;99.90;;;;;;6175272;23;20005;-79
2024/04/02 00:57:43;;;;;;;1.35;0.40;;;7.50;99.90;;;;;;6137455;23;20013;-79
2024/04/02 01:00:10;;;;;;;1.50;0.60;;;7.50;99.90;;;;;;6148292;23;20338;-80
2024/04/02 01:02:37;;;;;;;2.22;0.40;;;7.50;99.90;;;;;;6138572;23;20013;-78
2024/04/02 01:05:05;;;;;;;1.23;0.50;;;7.50;99.90;;;;;;6163490;23;20017;-79
2024/04/02 01:07:31;;;;;;;1.98;0.40;;;7.40;99.90;;;;;;6166604;23;20009;-78
2024/04/02 01:09:58;;;;;;;1.65;0.57;;;7.40;99.90;;;;;;6136988;23;20021;-80
2024/04/02 01:12:24;;;;;;;1.73;0.50;;;7.40;99.90;;;;;;6137516;23;20005;-80
2024/04/02 01:14:50;;;;;;;1.13;0.30;;;7.50;99.90;;;;;;6174420;23;20005;-79
2024/04/02 01:17:17;;;;;;;1.92;0.60;;;7.50;99.90;;;;;;6172040;23;20005;-79
2024/04/02 01:19:43;;;;;;;1.35;0.50;;;7.50;99.90;;;;;;6174589;23;20326;-79
2024/04/02 01:22:09;;;;;;;3.42;0.88;;;7.50;99.90;;;;;;6113952;23;20170;-78
2024/04/02 01:24:36;;;;;;;1.52;0.30;;;7.50;99.90;;;;;;6138451;23;20287;-80
2024/04/02 01:27:02;;;;;;;1.15;0.50;;;7.50;99.90;;;;;;6138016;23;20378;-79
2024/04/02 01:29:29;;;;;;;1.33;0.55;;;7.50;99.90;;;;;;6175151;23;20009;-80
2024/04/02 01:31:55;;;;;;;1.75;0.50;;;7.50;99.90;;;;;;6174560;23;20009;-79
2024/04/02 01:34:22;;;;;;;0.90;0.50;;;7.50;99.90;;;;;;6113112;23;20024;-80
2024/04/02 01:36:48;;;;;;;1.05;0.40;;;7.50;99.90;;;;;;6113895;23;20450;-80
2024/04/02 01:39:14;;;;;;;1.42;0.50;;;7.50;99.90;;;;;;6138670;23;20009;-80
2024/04/02 01:41:41;;;;;;;0.75;0.50;;;7.40;99.90;;;;;;6138948;23;20041;-80
2024/04/02 01:44:07;;;;;;;1.70;0.40;;;7.40;99.90;;;;;;6149978;23;20005;-79
2024/04/02 01:46:33;;;;;;;0.70;0.40;;;7.40;99.90;;;;;;6174802;23;20005;-79
2024/04/02 01:49:00;;;;;;;1.65;0.60;;;7.40;99.90;;;;;;6174082;23;20009;-80
2024/04/02 01:51:27;;;;;;;1.45;0.40;;;7.40;99.90;;;;;;6161908;23;20028;-80
2024/04/02 01:53:53;;;;;;;1.63;0.50;;;7.30;99.90;;;;;;6134491;23;20661;-80
2024/04/02 01:56:20;;;;;;;1.77;0.68;;;7.30;99.90;;;;;;6112891;23;20012;-79
2024/04/02 01:58:46;;;;;;;2.28;0.50;;;7.30;99.90;;;;;;6137806;23;20013;-80
2024/04/02 02:01:12;;;;;;;1.05;0.40;;;7.30;99.90;;;;;;6172644;23;20008;-79
2024/04/02 02:03:39;;;;;;;1.52;0.50;;;7.30;99.90;;;;;;6113124;23;20020;-77
2024/04/02 02:06:05;;;;;;;1.63;0.60;;;7.20;99.90;;;;;;6147536;23;20005;-79
2024/04/02 02:08:32;;;;;;;1.33;0.50;;;7.20;99.90;;;;;;6165176;23;20021;-79
2024/04/02 02:11:03;;;;;;;1.63;0.50;;;7.20;99.90;;;;;;6137902;23;20404;-79
2024/04/02 02:13:38;;;;;;;1.27;0.50;;;7.20;99.90;;;;;;6138007;23;20013;-79
2024/04/02 02:16:05;;;;;;;0.98;0.30;;;7.20;99.90;;;;;;6147871;23;20469;-80
2024/04/02 02:18:31;;;;;;;2.00;0.47;;;7.10;99.90;;;;;;6137597;23;20024;-79
2024/04/02 02:20:59;;;;;;;1.50;0.75;;;7.10;99.90;;;;;;6149041;23;20008;-79
2024/04/02 02:23:26;;;;;;;1.88;0.50;;;7.10;99.90;;;;;;6138689;23;20364;-80
2024/04/02 02:25:53;;;;;;;0.90;0.35;;;7.00;99.90;;;;;;6113120;23;20044;-78
2024/04/02 02:28:19;;;;;;;1.30;0.50;;;7.00;99.90;;;;;;6137316;23;20028;-79
2024/04/02 02:30:46;;;;;;;0.90;0.40;;;7.00;99.90;;;;;;6136689;23;20009;-78
2024/04/02 02:33:12;;;;;;;2.63;0.50;;;7.00;99.90;;;;;;6171919;23;20452;-80
2024/04/02 02:35:39;;;;;;;1.23;0.50;;;6.90;99.90;;;;;;6147201;23;20012;-79
2024/04/02 02:38:05;;;;;;;1.02;0.50;;;6.90;99.90;;;;;;6134334;23;20012;-79
2024/04/02 02:40:32;;;;;;;1.88;0.68;;;6.90;99.90;;;;;;6144731;23;20024;-78
2024/04/02 02:42:58;;;;;;;1.02;0.50;;;6.90;99.90;;;;;;6136462;23;20378;-79
2024/04/02 02:45:25;;;;;;;2.05;0.73;;;6.90;99.90;;;;;;6136158;23;20016;-79
2024/04/02 02:47:52;;;;;;;1.15;0.70;;;6.80;99.90;;;;;;6184946;23;20554;-79
2024/04/02 02:50:18;;;;;;;1.30;0.70;;;6.80;99.90;;;;;;6173900;23;20339;-77
2024/04/02 02:52:45;;;;;;;1.83;0.60;;;6.80;99.90;;;;;;6171599;23;20435;-79
2024/04/02 02:55:11;;;;;;;1.77;0.50;;;6.80;99.90;;;;;;6112171;23;20016;-79
2024/04/02 02:57:38;;;;;;;0.90;0.60;;;6.80;99.90;;;;;;6137095;23;20013;-79
2024/04/02 03:00:06;;;;;;;1.20;0.50;;;6.80;99.90;;;;;;6145901;23;20013;-77
2024/04/02 03:02:35;;;;;;;1.85;0.52;;;6.80;99.90;;;;;;6136732;23;20023;-79
2024/04/02 03:05:03;;;;;;;1.42;0.60;;;6.80;99.90;;;;;;6137743;23;20020;-79
2024/04/02 03:07:29;;;;;;;3.13;0.50;;;6.80;99.90;;;;;;6136235;23;20021;-78
2024/04/02 03:09:56;;;;;;;0.95;0.50;;;6.80;99.90;;;;;;6137041;23;20021;-78
2024/04/02 03:12:22;;;;;;;1.10;0.40;;;6.80;99.90;;;;;;6114376;23;20016;-79
2024/04/02 03:14:49;;;;;;;1.05;0.50;;;6.70;99.90;;;;;;6113183;23;20036;-79
2024/04/02 03:17:15;;;;;;;1.70;0.70;;;6.70;99.90;;;;;;6173321;23;20020;-78
2024/04/02 03:19:41;;;;;;;2.30;0.68;;;6.70;99.90;;;;;;6113307;23;20013;-78
2024/04/02 03:22:08;;;;;;;1.60;0.70;;;6.80;99.90;;;;;;6137549;23;20013;-79
2024/04/02 03:24:34;;;;;;;1.33;0.60;;;6.70;99.90;;;;;;6174148;23;20286;-78
2024/04/02 03:27:02;;;;;;;2.30;0.70;;;6.70;99.90;;;;;;6171888;23;20009;-79
2024/04/02 03:29:28;;;;;;;2.88;0.50;;;6.70;99.90;;;;;;6173857;23;20001;-79
2024/04/02 03:31:54;;;;;;;2.15;0.70;;;6.70;99.90;;;;;;6137215;23;20013;-79
2024/04/02 03:34:21;;;;;;;1.90;0.50;;;6.70;99.90;;;;;;6197632;23;20020;-79
2024/04/02 03:36:49;;;;;;;3.10;0.70;;;6.70;99.90;;;;;;6136851;23;20347;-79
2024/04/02 03:39:16;;;;;;;2.63;0.75;;;6.70;99.90;;;;;;6173945;23;20005;-78
2024/04/02 03:41:42;;;;;;;1.65;0.70;;;6.70;99.90;;;;;;6186786;23;20032;-79
2024/04/02 03:44:08;;;;;;;5.15;1.60;;;6.70;99.90;;;;;;6137263;23;20024;-81
2024/04/02 03:46:35;;;;;;;1.65;0.60;;;6.70;99.90;;;;;;6137705;23;20016;-80
2024/04/02 03:49:01;;;;;;;1.45;0.70;;;6.70;99.90;;;;;;6173013;23;20485;-80
2024/04/02 03:51:28;;;;;;;2.55;0.60;;;6.70;99.90;;;;;;6137186;23;20013;-79
2024/04/02 03:53:55;;;;;;;3.58;0.85;;;6.70;99.90;;;;;;6149149;23;20500;-79
2024/04/02 03:56:22;;;;;;;1.92;0.63;;;6.70;99.90;;;;;;6174226;23;20013;-79
2024/04/02 03:58:48;;;;;;;1.70;0.65;;;6.70;99.90;;;;;;6137060;23;20020;-79
2024/04/02 04:01:14;;;;;;;2.45;1.00;;;6.70;99.90;;;;;;6172500;23;20001;-79
2024/04/02 04:03:41;;;;;;;2.97;0.73;;;6.70;99.90;;;;;;6172568;23;20027;-80
2024/04/02 04:06:07;;;;;;;1.98;0.60;;;6.70;99.90;;;;;;6137921;23;20327;-81
2024/04/02 04:08:34;;;;;;;2.30;0.50;;;6.70;99.90;;;;;;6164898;23;20352;-79
2024/04/02 04:11:01;;;;;;;2.80;0.60;;;6.70;99.90;;;;;;6112572;23;20020;-79
2024/04/02 04:13:28;;;;;;;5.03;0.98;;;6.70;99.90;;;;;;6138453;23;20016;-80
2024/04/02 04:15:59;;;;;;;1.40;0.45;;;6.70;99.90;;;;;;6189786;23;20009;-81
2024/04/02 04:18:27;;;;;;;1.52;0.70;;;6.70;99.90;;;;;;6150984;23;20365;-80
2024/04/02 04:20:54;;;;;;;1.77;0.55;;;6.70;99.90;;;;;;6091547;23;20017;-78
2024/04/02 04:23:21;;;;;;;4.00;0.55;;;6.70;99.90;;;;;;6116150;23;20016;-79
2024/04/02 04:25:57;;;;;;;1.50;0.60;;;6.70;99.90;;;;;;6115812;23;20005;-79
2024/04/02 04:28:25;;;;;;;2.38;0.65;;;6.70;99.90;;;;;;6117149;23;20020;-79
2024/04/02 04:30:56;;;;;;;2.00;0.60;;;6.70;99.90;;;;;;6092467;23;20024;-79
2024/04/02 04:33:23;;;;;;;1.13;0.50;;;6.70;99.90;;;;;;6142071;23;20028;-79
2024/04/02 04:35:50;;;;;;;2.08;0.70;;;6.70;99.90;;;;;;6175875;23;20347;-79
2024/04/02 04:38:17;;;;;;;3.30;0.52;;;6.70;99.90;;;;;;6092965;23;20013;-79
2024/04/02 04:40:44;;;;;;;1.63;0.60;;;6.70;99.90;;;;;;6141531;23;20013;-79
2024/04/02 04:43:12;;;;;;;1.60;0.60;;;6.60;99.90;;;;;;6152346;23;20556;-78
2024/04/02 04:45:38;;;;;;;4.65;1.10;;;6.60;99.90;;;;;;6143769;23;20024;-79
2024/04/02 04:48:06;;;;;;;2.95;0.90;;;6.60;99.90;;;;;;6100935;23;20353;-79
2024/04/02 04:50:34;;;;;;;1.95;1.00;;;6.60;99.90;;;;;;6149021;23;20024;-78
2024/04/02 04:53:01;;;;;;;2.45;0.70;;;6.60;99.90;;;;;;6101201;23;20005;-78
2024/04/02 04:55:30;;;;;;;2.88;0.65;;;6.70;99.90;;;;;;6185863;23;20403;-78
2024/04/02 04:57:57;;;;;;;3.30;0.70;;;6.70;99.90;;;;;;6149443;23;20025;-78
2024/04/02 05:00:24;;;;;;;1.63;0.77;;;6.80;99.90;;;;;;6149132;23;20017;-78
2024/04/02 05:02:50;;;;;;;1.95;0.70;;;7.00;99.90;;;;;;6160254;23;20088;-78
2024/04/02 05:05:17;;;;;;;2.47;0.77;;;7.00;99.90;;;;;;6159815;23;20005;-78
2024/04/02 05:08:13;;;;;;;5.28;1.10;;;7.10;99.90;;;;;;6148691;23;20013;-78
2024/04/02 05:10:40;;;;;;;3.00;1.10;;;7.20;99.90;;;;;;6186159;23;20013;-78
2024/04/02 05:13:06;;;;;;;2.75;0.60;;;7.30;99.90;;;;;;6150294;23;20009;-78
2024/04/02 05:15:32;;;;;;;3.45;1.17;;;7.40;99.90;;;;;;6159933;23;20001;-78
2024/04/02 05:17:59;;;;;;;2.33;0.80;;;7.50;99.90;;;;;;6185119;23;20461;-79
2024/04/02 05:20:26;;;;;;;3.67;0.70;;;7.50;99.90;;;;;;6174270;23;20024;-78
2024/04/02 05:22:53;;;;;;;3.80;0.63;;;7.50;99.90;;;;;;6150293;23;20025;-78
2024/04/02 05:25:20;;;;;;;4.72;1.23;;;7.50;99.90;;;;;;6186304;23;20300;-78
2024/04/02 05:27:47;;;;;;;4.38;1.08;;;7.50;99.90;;;;;;6135299;23;20005;-78
2024/04/02 05:30:14;;;;;;;3.70;0.98;;;7.60;99.90;;;;;;6124285;23;20028;-78
2024/04/02 05:32:40;;;;;;;2.25;0.88;;;7.60;99.90;;;;;;6186660;23;20383;-78
2024/04/02 05:35:06;;;;;;;2.80;0.82;;;7.70;99.90;;;;;;6124855;23;20020;-78
2024/04/02 05:37:34;;;;;;;3.53;0.90;;;7.70;99.90;;;;;;6181340;23;20001;-78
2024/04/02 05:40:04;;;;;;;3.25;0.70;;;7.80;99.90;;;;;;6182449;23;20012;-78
2024/04/02 05:42:31;;;;;;;3.50;0.90;;;7.90;99.90;;;;;;6125108;23;20319;-77
2024/04/02 05:44:57;;;;;;;2.30;1.00;;;8.00;99.90;;;;;;6149279;23;20116;-78
2024/04/02 05:47:24;;;;;;;2.42;0.95;;;8.00;99.90;;;;;;6149127;23;20024;-79
2024/04/02 05:49:50;;;;;;;3.97;1.20;;;8.10;99.90;;;;;;6123908;23;20009;-78
2024/04/02 05:52:17;;;;;;;3.35;1.00;;;8.20;99.90;;;;;;6185745;23;20009;-79
2024/04/02 05:54:43;;;;;;;3.05;1.10;;;8.30;99.90;;;;;;6124261;23;20016;-79
2024/04/02 05:57:10;;;;;;;3.15;1.00;;;8.40;99.90;;;;;;6122438;23;20008;-79
2024/04/02 05:59:37;;;;;;;4.05;0.77;;;8.40;99.90;;;;;;6182983;23;20016;-79
2024/04/02 06:02:04;;;;;;;5.65;1.33;;;8.50;99.90;;;;;;6147057;23;20013;-78
2024/04/02 06:04:30;;;;;;;6.28;0.95;;;8.50;99.90;;;;;;6159284;23;20016;-78
2024/04/02 06:06:56;;;;;;;4.43;0.93;;;8.50;99.90;;;;;;6120154;23;20021;-78
2024/04/02 06:09:23;;;;;;;3.55;1.20;;;8.60;99.90;;;;;;6123003;23;20025;-79
2024/04/02 06:11:49;;;;;;;4.13;0.98;;;8.60;99.90;;;;;;6147217;23;20013;-78
2024/04/02 06:14:15;;;;;;;3.75;1.33;;;8.60;99.90;;;;;;6123469;23;20016;-78
2024/04/02 06:16:41;;;;;;;2.85;0.80;;;8.70;99.90;;;;;;6148885;23;20049;-79
2024/04/02 06:19:08;;;;;;;3.35;0.90;;;8.60;99.90;;;;;;6123199;23;20489;-78
2024/04/02 06:21:34;;;;;;;3.53;1.20;;;8.70;99.90;;;;;;6148708;23;20628;-78
2024/04/02 06:24:01;;;;;;;5.68;1.45;;;8.70;99.90;;;;;;6158229;23;20695;-81
2024/04/02 06:26:27;;;;;;;5.50;1.70;;;8.70;99.90;;;;;;6197303;23;20439;-79
2024/04/02 06:28:53;;;;;;;5.07;1.00;;;8.70;99.90;;;;;;6157377;23;20021;-78
2024/04/02 06:31:20;;;;;;;5.15;1.38;;;8.70;99.90;;;;;;6157652;23;20009;-78
2024/04/02 06:33:46;;;;;;;4.68;1.00;;;8.80;99.90;;;;;;6147990;23;20348;-78
2024/04/02 06:36:12;;;;;;;4.72;1.35;;;9.00;99.90;;;;;;6182878;23;20378;-78
2024/04/02 06:38:38;;;;;;;3.50;0.80;;;9.10;99.90;;;;;;6157844;23;20016;-78
2024/04/02 06:41:05;;;;;;;6.15;1.60;;;9.20;99.90;;;;;;6183764;23;20005;-78
2024/04/02 06:43:31;;;;;;;5.95;1.48;;;9.30;99.90;;;;;;6157665;23;20009;-78
2024/04/02 06:46:00;;;;;;;5.60;1.55;;;9.40;99.90;;;;;;6147115;23;20013;-79
2024/04/02 06:48:26;;;;;;;3.50;1.00;;;9.50;99.90;;;;;;6157891;23;20429;-79
2024/04/02 06:51:07;;;;;;;6.57;1.52;;;9.60;99.90;;;;;;6157138;23;20008;-78
2024/04/02 06:53:34;;;;;;;5.45;1.40;;;9.60;99.90;;;;;;6123393;23;20363;-78
2024/04/02 06:56:00;;;;;;;3.40;1.33;;;9.70;99.90;;;;;;6183852;23;20012;-78
2024/04/02 06:58:28;;;;;;;4.75;1.33;;;9.70;99.90;;;;;;6181245;23;20009;-79
2024/04/02 07:00:54;;;;;;;4.38;0.95;;;9.80;99.90;;;;;;6146307;23;20013;-79
2024/04/02 07:03:22;;;;;;;2.47;0.75;;;9.80;99.90;;;;;;6157988;23;20316;-79
2024/04/02 07:05:50;;;;;;;5.07;0.93;;;9.80;99.90;;;;;;6183941;23;20001;-80
2024/04/02 07:08:17;;;;;;;5.50;1.00;;;9.80;99.90;;;;;;6097607;23;20406;-79
2024/04/02 07:11:01;;;;;;;3.38;1.13;;;9.80;99.90;;;;;;6097785;23;20028;-79
2024/04/02 07:13:28;;;;;;;6.15;1.30;;;9.80;99.90;;;;;;6123332;23;20012;-79
2024/04/02 07:15:55;;;;;;;6.20;1.85;;;9.80;99.90;;;;;;6124834;23;20024;-79
2024/04/02 07:18:21;;;;;;;5.93;1.42;;;9.80;99.90;;;;;;6147488;23;20017;-78
2024/04/02 07:21:01;;;;;;;5.30;1.77;;;9.90;99.90;;;;;;6146891;23;20473;-79
2024/04/02 07:23:28;;;;;;;9.40;1.60;;;9.90;99.90;;;;;;6147358;23;20162;-79
2024/04/02 07:25:55;;;;;;;7.82;1.67;;;10.00;99.90;;;;;;6098733;23;20383;-79
2024/04/02 07:28:22;;;;;;;5.80;1.70;;;10.00;99.90;;;;;;6184589;23;20016;-78
2024/04/02 07:30:49;;;;;;;11.07;2.42;;;10.00;99.90;;;;;;6157765;23;20469;-79
2024/04/02 07:33:16;;;;;;;8.27;2.65;;;10.00;99.90;;;;;;6184509;23;20418;-80
2024/04/02 07:35:43;;;;;;;5.97;2.08;;;10.00;99.90;;;;;;6098682;23;20485;-79
2024/04/02 07:38:10;;;;;;;9.38;2.75;;;10.00;99.90;;;;;;6183119;23;20000;-79
2024/04/02 07:40:37;;;;;;;5.25;1.80;;;10.00;99.90;;;;;;6157174;23;20012;-79
2024/04/02 07:43:05;;;;;;;8.57;1.77;;;10.00;99.90;;;;;;6157456;23;20052;-79
2024/04/02 07:45:33;;;;;;;13.43;3.17;;;10.00;99.90;;;;;;6147593;23;20013;-78
2024/04/02 07:47:59;;;;;;;9.77;1.95;;;10.00;99.90;;;;;;6156167;23;20013;-80
2024/04/02 07:50:34;;;;;;;7.32;1.90;;;10.00;99.90;;;;;;6146579;23;20017;-80
2024/04/02 07:53:01;;;;;;;12.18;2.42;;;10.10;99.90;;;;;;6098805;23;20009;-80
2024/04/02 07:55:27;;;;;;;5.13;1.65;;;10.10;99.90;;;;;;6182768;23;20339;-78
2024/04/02 07:57:54;;;;;;;6.70;2.17;;;10.10;99.90;;;;;;6180561;23;20247;-78
2024/04/02 08:00:20;;;;;;;8.00;2.15;;;10.10;99.90;;;;;;6146449;23;20017;-79
2024/04/02 08:02:47;;;;;;;8.07;1.98;;;10.20;99.90;;;;;;6184330;23;20021;-79
2024/04/02 08:05:14;;;;;;;11.20;2.33;;;10.20;99.90;;;;;;6125295;23;20346;-80
2024/04/02 08:07:45;;;;;;;12.32;2.42;;;10.20;99.90;;;;;;6152735;23;20016;-80
2024/04/02 08:10:12;;;;;;;4.47;1.75;;;10.30;99.90;;;;;;6147923;23;20017;-79
2024/04/02 08:12:38;;;;;;;7.60;1.75;;;10.30;99.90;;;;;;6159416;23;20008;-79
2024/04/02 08:15:05;;;;;;;10.60;1.80;;;10.30;99.90;;;;;;6186671;23;20009;-79
2024/04/02 08:17:32;;;;;;;7.50;1.90;;;10.30;99.90;;;;;;6159056;23;20012;-80
2024/04/02 08:19:58;;;;;;;9.48;2.13;;;10.40;99.90;;;;;;6159883;23;20020;-80
2024/04/02 08:22:25;;;;;;;6.97;1.70;;;10.40;99.90;;;;;;6149063;23;20021;-79
2024/04/02 08:24:53;;;;;;;9.05;2.00;;;10.40;99.90;;;;;;6149102;23;20021;-79
2024/04/02 08:27:20;;;;;;;7.63;1.52;;;10.40;99.90;;;;;;6149018;23;20013;-80
2024/04/02 08:29:46;;;;;;;8.85;1.35;;;10.40;99.90;;;;;;6135241;23;20005;-79
2024/04/02 08:32:12;;;;;;;14.95;1.75;;;10.40;99.90;;;;;;6149362;23;20020;-79
2024/04/02 08:34:39;;;;;;;11.25;2.25;;;10.40;99.90;;;;;;6160179;23;20005;-78
2024/04/02 08:37:05;;;;;;;11.52;1.88;;;10.40;99.90;;;;;;6184408;23;20450;-78
2024/04/02 08:39:32;;;;;;;6.18;1.20;;;10.40;99.90;;;;;;6185514;23;20009;-79
2024/04/02 08:42:03;;;;;;;8.65;1.63;;;10.40;99.90;;;;;;6184460;23;20285;-79
2024/04/02 08:44:31;;;;;;;9.75;1.70;;;10.40;99.90;;;;;;6125417;23;20013;-79
2024/04/02 08:46:59;;;;;;;7.88;1.20;;;10.40;99.90;;;;;;6124358;23;20682;-78
2024/04/02 08:49:25;;;;;;;10.80;2.22;;;10.40;99.90;;;;;;6125493;23;20012;-79
2024/04/02 08:51:55;;;;;;;12.68;2.28;;;10.40;99.90;;;;;;6149485;23;20017;-77
2024/04/02 08:54:22;;;;;;;11.70;4.20;;;10.40;99.90;;;;;;6185974;23;20005;-76
2024/04/02 08:56:48;;;;;;;9.27;2.70;;;10.50;99.90;;;;;;6149202;23;20024;-77
2024/04/02 08:59:16;;;;;;;7.85;1.40;;;10.60;99.90;;;;;;6148507;23;20009;-81
2024/04/02 09:01:44;;;;;;;7.10;1.80;;;10.70;99.90;;;;;;6100071;23;20039;-80
2024/04/02 09:04:12;;;;;;;7.72;1.77;;;10.80;99.90;;;;;;6120090;23;20016;-81
2024/04/02 09:06:39;;;;;;;9.98;2.30;;;10.80;99.90;;;;;;6176058;23;20450;-81
2024/04/02 09:09:05;;;;;;;7.50;2.03;;;10.90;99.90;;;;;;6141819;23;20503;-82
2024/04/02 09:11:35;;;;;;;7.38;1.73;;;10.90;99.90;;;;;;6116784;23;20480;-78
2024/04/02 09:14:04;;;;;;;12.00;2.05;;;11.00;99.90;;;;;;6151633;23;20308;-78
2024/04/02 09:16:34;;;;;;;8.00;1.85;;;11.00;99.90;;;;;;6117290;23;20017;-81
2024/04/02 09:19:00;;;;;;;10.00;1.40;;;11.00;99.90;;;;;;6116999;23;20013;-80
2024/04/02 09:21:27;;;;;;;11.90;1.75;;;11.00;99.90;;;;;;6165678;23;20017;-80
2024/04/02 09:23:54;;;;;;;10.70;1.95;;;11.00;99.90;;;;;;6117366;23;20017;-79
2024/04/02 09:26:23;;;;;;;9.50;1.83;;;11.00;99.90;;;;;;6141923;23;20889;-82
2024/04/02 09:28:52;;;;;;;10.73;2.08;;;11.10;99.90;;;;;;6117378;23;20017;-80
2024/04/02 09:31:19;;;;;;;8.30;1.90;;;11.20;99.90;;;;;;6178196;23;20012;-82
2024/04/02 09:33:48;;;;;;;9.98;1.75;;;11.30;99.90;;;;;;6177509;23;20016;-83
2024/04/02 09:36:41;;;;;;;6.03;1.10;;;11.30;99.90;;;;;;6151407;23;20016;-84
2024/04/02 09:39:13;;;;;;;10.38;2.60;;;11.50;99.90;;;;;;6091488;23;20009;-84
2024/04/02 09:41:44;;;;;;;7.45;1.30;;;11.70;99.90;;;;;;6150845;23;20009;-82
2024/04/02 09:44:19;;;;;;;11.27;1.10;;;11.80;99.90;;;;;;6092346;23;20519;-81
2024/04/02 09:46:46;;;;;;;7.88;1.17;;;11.80;99.90;;;;;;6150201;23;20009;-83
2024/04/02 09:49:13;;;;;;;5.85;1.00;;;11.90;99.90;;;;;;6150694;23;20435;-84
2024/04/02 09:51:40;;;;;;;10.05;2.28;;;11.90;99.90;;;;;;6177476;23;20005;-83
2024/04/02 09:54:07;;;;;;;11.35;2.17;;;11.90;99.90;;;;;;6117236;23;20322;-78
2024/04/02 09:56:34;;;;;;;8.95;1.98;;;11.90;99.90;;;;;;6091441;23;20390;-77
2024/04/02 09:59:02;;;;;;;6.55;1.38;;;12.00;99.90;;;;;;6175800;23;20009;-80
2024/04/02 10:01:32;;;;;;;9.07;1.30;;;12.20;99.90;;;;;;6115716;23;20020;-77
2024/04/02 10:04:09;;;;;;;10.07;1.35;;;12.60;99.90;;;;;;6148609;23;20005;-79
2024/04/02 10:06:38;;;;;;;7.50;1.08;;;12.90;99.90;;;;;;6113562;23;20020;-80
2024/04/02 10:09:12;;;;;;;8.50;1.23;;;13.20;99.90;;;;;;6113649;23;20025;-79
2024/04/02 10:11:42;;;;;;;7.38;1.13;;;13.30;99.90;;;;;;6090610;23;20009;-78
2024/04/02 10:14:16;;;;;;;7.63;1.10;;;13.50;99.90;;;;;;6137450;23;20473;-79
2024/04/02 10:16:50;;;;;;;8.70;1.60;;;13.70;99.90;;;;;;6114089;23;20019;-77
2024/04/02 10:19:22;;;;;;;9.48;1.63;;;13.90;99.90;;;;;;6139432;23;20017;-80
2024/04/02 10:21:49;;;;;;;8.00;1.38;;;14.10;99.90;;;;;;6114059;23;20449;-80
2024/04/02 10:24:17;;;;;;;6.75;1.30;;;14.30;99.90;;;;;;6173535;23;20016;-82
2024/04/02 10:26:44;;;;;;;5.35;1.58;;;14.30;99.90;;;;;;6124217;23;20012;-82
2024/04/02 10:29:10;;;;;;;8.23;1.73;;;14.20;99.90;;;;;;6148928;23;20524;-78
2024/04/02 10:31:58;;;;;;;5.00;1.17;;;14.10;99.90;;;;;;6172897;23;20024;-82
2024/04/02 10:34:43;;;;;;;5.65;0.80;;;13.90;99.90;;;;;;6152834;23;20023;-80
2024/04/02 10:37:28;;;;;;;6.82;0.60;;;13.70;99.90;;;;;;6174836;23;20020;-80
2024/04/02 10:40:14;;;;;;;8.52;0.90;;;13.40;99.90;;;;;;6152623;23;20012;-80
2024/04/02 10:42:42;;;;;;;5.53;0.77;;;13.20;99.90;;;;;;6114072;23;20009;-81
2024/04/02 10:45:09;;;;;;;6.28;0.80;;;13.00;99.90;;;;;;6111755;23;20021;-82
2024/04/02 10:47:48;;;;;;;3.30;0.70;;;12.80;99.90;;;;;;6175745;23;20211;-85
2024/04/02 10:50:22;;;;;;;5.80;0.80;;;12.70;99.90;;;;;;6138811;23;20005;-88
2024/04/02 10:52:49;;;;;;;2.33;0.60;;;12.80;99.90;;;;;;6139449;23;20012;-81
2024/04/02 10:55:15;;;;;;;6.22;0.88;;;12.80;99.90;;;;;;6174500;23;20005;-78
2024/04/02 10:57:42;;;;;;;6.20;0.70;;;12.90;99.90;;;;;;6135046;23;20013;-83
2024/04/02 11:00:10;;;;;;;5.80;0.90;;;13.10;99.90;;;;;;6136509;23;20450;-78
2024/04/02 11:02:38;;;;;;;4.38;0.60;;;13.10;99.90;;;;;;6113313;23;20013;-83
2024/04/02 11:05:06;;;;;;;4.35;1.15;;;13.10;99.90;;;;;;6151115;23;20009;-80
2024/04/02 11:07:33;;;;;;;3.70;0.60;;;13.20;99.90;;;;;;6170785;23;20024;-80
2024/04/02 11:10:00;;;;;;;3.88;0.70;;;13.10;99.90;;;;;;6140945;23;20017;-78
2024/04/02 11:12:27;;;;;;;4.07;0.70;;;13.20;99.90;;;;;;6176673;23;20342;-80
2024/04/02 11:14:55;;;;;;;3.65;0.70;;;13.20;99.90;;;;;;6138024;23;20017;-77
2024/04/02 11:17:22;;;;;;;6.18;0.60;;;13.10;99.90;;;;;;6090079;23;20375;-76
2024/04/02 11:19:49;;;;;;;3.78;0.70;;;13.10;99.90;;;;;;6139844;23;20024;-77
2024/04/02 11:25:11;;;;;;;6.10;0.75;;;13.10;99.90;;;;;;6139471;23;20048;-78
2024/04/02 11:27:39;;;;;;;5.30;0.65;;;13.00;99.90;;;;;;6125803;23;20009;-78
2024/04/02 11:30:06;;;;;;;3.58;0.90;;;12.90;99.90;;;;;;6140113;23;20017;-78
2024/04/02 11:32:34;;;;;;;5.60;0.80;;;12.80;99.90;;;;;;6115080;23;20017;-78
2024/04/02 11:35:09;;;;;;;5.82;0.90;;;12.70;99.90;;;;;;6139725;23;20016;-78
2024/04/02 11:37:36;;;;;;;6.22;0.80;;;12.70;99.90;;;;;;6124316;23;20009;-78
2024/04/02 11:40:04;;;;;;;4.82;0.70;;;12.80;99.90;;;;;;6125063;23;20005;-79
2024/04/02 11:42:30;;;;;;;7.85;0.88;;;12.90;99.90;;;;;;6139947;23;20359;-77
2024/04/02 11:45:00;;;;;;;4.07;0.60;;;13.00;99.90;;;;;;6150186;23;20483;-76
2024/04/02 11:47:27;;;;;;;3.17;0.60;;;13.00;99.90;;;;;;6113936;23;20396;-75
2024/04/02 11:49:53;;;;;;;2.35;0.70;;;13.00;99.90;;;;;;6116063;23;20434;-76
2024/04/02 11:52:20;;;;;;;5.60;0.80;;;13.00;99.90;;;;;;6139712;23;20015;-79
2024/04/02 11:54:46;;;;;;;1.98;0.70;;;13.00;99.90;;;;;;6139579;23;20012;-76
2024/04/02 12:00:17;;;;;;;4.82;0.80;;;12.70;99.90;;;;;;6175873;23;20326;-76
2024/04/02 12:02:46;;;;;;;3.50;0.60;;;12.50;99.90;;;;;;6173762;23;20024;-79
2024/04/02 12:05:14;;;;;;;3.67;0.98;;;12.30;99.90;;;;;;6175609;23;20783;-78
2024/04/02 12:07:41;;;;;;;4.63;0.88;;;12.10;99.90;;;;;;6120656;23;20005;-77
2024/04/02 12:10:10;;;;;;;4.18;0.73;;;11.90;99.90;;;;;;6139807;23;20020;-75
2024/04/02 12:12:36;;;;;;;4.72;0.60;;;11.80;99.90;;;;;;6115981;23;20021;-77
2024/04/02 12:15:07;;;;;;;3.28;0.80;;;11.80;99.90;;;;;;6150809;23;20466;-77
2024/04/02 12:17:34;;;;;;;5.22;1.38;;;11.80;99.90;;;;;;6125177;23;20012;-77
2024/04/02 12:20:00;;;;;;;3.72;0.70;;;11.90;99.90;;;;;;6175813;23;20027;-76
2024/04/02 12:22:27;;;;;;;3.13;0.80;;;12.00;99.90;;;;;;6176617;23;20371;-77
2024/04/02 12:24:54;;;;;;;5.43;1.10;;;12.20;99.90;;;;;;6140344;23;20013;-77
2024/04/02 12:27:22;;;;;;;4.60;0.93;;;12.20;99.90;;;;;;6150221;23;20005;-77
2024/04/02 12:29:58;;;;;;;23.77;11.10;;;12.20;99.90;;;;;;6174450;23;20048;-78
2024/04/02 12:32:28;;;;;;;9.95;3.33;;;12.30;99.90;;;;;;6149583;23;20005;-78
2024/04/02 12:34:55;;;;;;;5.38;1.77;;;12.40;99.90;;;;;;6175095;23;20084;-76
2024/04/02 12:37:21;;;;;;;5.95;2.00;;;12.60;99.90;;;;;;6139247;23;20485;-75
2024/04/02 12:39:47;;;;;;;4.60;1.38;;;12.80;99.90;;;;;;6138147;23;20013;-78
2024/04/02 12:42:19;;;;;;;4.75;0.82;;;13.10;99.90;;;;;;6114752;23;20025;-77
2024/04/02 12:44:47;;;;;;;6.60;2.55;;;13.20;99.90;;;;;;6139994;23;20021;-78
2024/04/02 12:47:15;;;;;;;4.13;1.38;;;13.20;99.90;;;;;;6174724;23;20005;-78
2024/04/02 12:49:42;;;;;;;4.75;1.08;;;13.20;99.90;;;;;;6117584;23;20013;-81
2024/04/02 12:52:08;;;;;;;4.55;0.95;;;13.10;99.90;;;;;;6118087;23;20009;-79
2024/04/02 12:54:35;;;;;;;5.53;0.70;;;13.10;99.90;;;;;;6141091;23;20005;-76
2024/04/02 12:57:02;;;;;;;5.88;1.10;;;13.10;99.90;;;;;;6153493;23;20624;-76
2024/04/02 12:59:28;;;;;;;5.82;1.50;;;13.00;99.90;;;;;;6139725;23;20216;-78
2024/04/02 13:01:55;;;;;;;2.80;0.60;;;13.00;99.90;;;;;;6176330;23;20339;-79